createdAt,value
2023-03-30T00:04:52.729Z,12.70
2023-03-30T00:11:18.553Z,12.80
2023-03-30T00:13:45.894Z,12.70
2023-03-30T00:16:14.723Z,12.70
2023-03-30T00:18:42.467Z,12.70
2023-03-30T00:21:20.721Z,13.00
2023-03-30T00:23:49.492Z,12.80
2023-03-30T00:26:52.886Z,12.70
2023-03-30T00:35:12.680Z,12.40
2023-03-30T00:38:15.831Z,12.60
2023-03-30T00:42:03.855Z,12.60
2023-03-30T00:44:52.062Z,12.90
2023-03-30T00:47:22.689Z,12.60
2023-03-30T00:50:12.489Z,12.80
2023-03-30T00:53:01.340Z,14.00
2023-03-30T00:55:33.046Z,12.70
2023-03-30T00:58:11.887Z,12.60
2023-03-30T01:00:55.396Z,12.60
2023-03-30T01:03:57.446Z,12.60
2023-03-30T01:06:26.556Z,12.50
2023-03-30T01:08:55.150Z,12.70
2023-03-30T01:11:43.089Z,12.90
2023-03-30T01:14:52.165Z,12.50
2023-03-30T01:17:59.964Z,12.50
2023-03-30T01:20:57.842Z,12.50
2023-03-30T01:23:53.011Z,12.50
2023-03-30T01:27:07.225Z,12.50
2023-03-30T01:29:38.092Z,12.40
2023-03-30T01:32:23.786Z,12.40
2023-03-30T01:35:52.938Z,12.40
2023-03-30T01:38:28.586Z,12.40
2023-03-30T01:41:55.598Z,12.50
2023-03-30T01:45:15.820Z,12.30
2023-03-30T01:48:40.540Z,12.30
2023-03-30T01:51:11.585Z,12.30
2023-03-30T01:53:48.054Z,12.30
2023-03-30T01:56:29.746Z,12.20
2023-03-30T01:59:53.259Z,12.20
2023-03-30T02:02:27.500Z,12.10
2023-03-30T02:04:57.940Z,12.20
2023-03-30T02:07:31.460Z,12.20
2023-03-30T02:10:21.318Z,12.50
2023-03-30T02:13:13.920Z,12.10
2023-03-30T02:16:07.215Z,12.10
2023-03-30T02:18:38.264Z,12.10
2023-03-30T02:21:08.931Z,12.10
2023-03-30T02:26:23.755Z,12.00
2023-03-30T02:28:52.213Z,12.00
2023-03-30T02:31:24.001Z,11.80
2023-03-30T02:34:24.138Z,11.90
2023-03-30T02:40:12.682Z,11.60
2023-03-30T02:43:14.137Z,11.80
2023-03-30T02:46:15.313Z,11.80
2023-03-30T02:49:13.286Z,11.80
2023-03-30T02:51:55.951Z,11.70
2023-03-30T02:54:47.555Z,11.90
2023-03-30T02:57:30.182Z,11.90
2023-03-30T03:00:46.786Z,11.80
2023-03-30T03:03:34.654Z,11.60
2023-03-30T03:06:03.751Z,11.80
2023-03-30T03:08:37.674Z,11.80
2023-03-30T03:11:07.964Z,11.90
2023-03-30T03:13:37.235Z,11.70
2023-03-30T03:16:19.107Z,11.70
2023-03-30T03:19:04.589Z,11.70
2023-03-30T03:21:32.211Z,11.40
2023-03-30T03:23:59.669Z,11.70
2023-03-30T03:26:40.348Z,11.60
2023-03-30T03:29:07.853Z,11.60
2023-03-30T03:31:35.896Z,12.00
2023-03-30T03:34:03.968Z,11.50
2023-03-30T03:37:00.919Z,11.60
2023-03-30T03:39:31.338Z,11.50
2023-03-30T03:42:08.120Z,11.40
2023-03-30T03:44:42.237Z,11.30
2023-03-30T03:47:10.112Z,11.30
2023-03-30T03:49:39.631Z,11.10
2023-03-30T03:54:35.258Z,11.20
2023-03-30T03:57:02.988Z,11.30
2023-03-30T03:59:30.470Z,11.20
2023-03-30T04:01:58.215Z,11.20
2023-03-30T04:04:25.902Z,11.10
2023-03-30T04:06:56.315Z,11.10
2023-03-30T04:09:24.840Z,11.00
2023-03-30T04:12:11.569Z,11.20
2023-03-30T04:14:56.983Z,11.00
2023-03-30T04:17:40.980Z,11.10
2023-03-30T04:20:29.995Z,11.30
2023-03-30T04:23:10.613Z,11.70
2023-03-30T04:26:07.936Z,11.10
2023-03-30T04:29:00.280Z,11.20
2023-03-30T04:31:48.407Z,11.00
2023-03-30T04:34:21.740Z,11.20
2023-03-30T04:37:30.252Z,11.00
2023-03-30T04:40:18.625Z,10.90
2023-03-30T04:43:04.661Z,10.90
2023-03-30T04:45:56.342Z,10.90
2023-03-30T04:48:43.951Z,10.80
2023-03-30T04:51:37.426Z,11.20
2023-03-30T04:54:14.028Z,10.80
2023-03-30T04:56:59.996Z,10.80
2023-03-30T04:59:45.580Z,10.90
2023-03-30T05:02:42.045Z,11.00
2023-03-30T05:05:31.529Z,10.90
2023-03-30T05:08:24.848Z,10.90
2023-03-30T05:11:15.080Z,11.00
2023-03-30T05:13:58.079Z,10.80
2023-03-30T05:16:38.286Z,11.00
2023-03-30T05:19:15.211Z,11.10
2023-03-30T05:22:02.900Z,10.80
2023-03-30T05:24:52.192Z,10.90
2023-03-30T05:27:32.647Z,11.40
2023-03-30T05:30:17.845Z,10.90
2023-03-30T05:33:11.783Z,10.90
2023-03-30T05:36:06.039Z,10.90
2023-03-30T05:38:57.430Z,10.80
2023-03-30T05:41:43.263Z,10.90
2023-03-30T05:44:29.752Z,11.40
2023-03-30T05:47:16.855Z,11.30
2023-03-30T05:49:57.154Z,11.20
2023-03-30T05:52:36.412Z,10.80
2023-03-30T05:55:24.032Z,10.90
2023-03-30T05:58:25.086Z,10.80
2023-03-30T06:01:09.468Z,10.90
2023-03-30T06:03:42.107Z,10.90
2023-03-30T06:06:11.134Z,11.10
2023-03-30T06:08:41.900Z,11.20
2023-03-30T06:11:14.401Z,11.00
2023-03-30T06:14:05.032Z,10.90
2023-03-30T06:16:32.897Z,10.80
2023-03-30T06:19:01.327Z,10.90
2023-03-30T06:21:29.801Z,11.10
2023-03-30T06:24:15.729Z,11.20
2023-03-30T06:26:43.454Z,10.90
2023-03-30T06:29:11.313Z,10.80
2023-03-30T06:34:42.373Z,11.00
2023-03-30T06:37:09.918Z,11.80
2023-03-30T06:39:38.625Z,11.20
2023-03-30T06:42:07.252Z,11.20
2023-03-30T06:44:49.920Z,11.20
2023-03-30T06:47:27.690Z,11.30
2023-03-30T06:49:56.142Z,11.40
2023-03-30T06:54:57.593Z,11.90
2023-03-30T06:57:25.326Z,11.70
2023-03-30T06:59:53.059Z,11.80
2023-03-30T07:02:21.145Z,11.80
2023-03-30T07:05:08.460Z,11.90
2023-03-30T07:07:45.748Z,11.70
2023-03-30T07:10:13.232Z,11.90
2023-03-30T07:12:43.534Z,11.90
2023-03-30T07:15:12.529Z,11.90
2023-03-30T07:17:42.020Z,11.60
2023-03-30T07:20:15.036Z,12.30
2023-03-30T07:23:05.608Z,12.00
2023-03-30T07:25:34.031Z,12.00
2023-03-30T07:28:09.982Z,12.10
2023-03-30T07:30:37.649Z,12.10
2023-03-30T07:33:07.786Z,12.10
2023-03-30T07:35:36.803Z,12.20
2023-03-30T07:38:07.482Z,12.20
2023-03-30T07:40:40.903Z,12.20
2023-03-30T07:43:09.402Z,12.30
2023-03-30T07:45:37.194Z,12.50
2023-03-30T07:50:41.500Z,12.30
2023-03-30T07:53:16.887Z,12.30
2023-03-30T07:55:48.991Z,12.40
2023-03-30T07:58:26.679Z,12.40
2023-03-30T08:01:23.643Z,11.80
2023-03-30T08:04:12.777Z,12.40
2023-03-30T08:07:18.300Z,12.30
2023-03-30T08:10:20.348Z,12.40
2023-03-30T08:12:50.818Z,12.50
2023-03-30T08:15:24.327Z,12.50
2023-03-30T08:17:53.163Z,12.50
2023-03-30T08:20:30.188Z,12.60
2023-03-30T08:23:12.860Z,12.50
2023-03-30T08:30:23.664Z,12.70
2023-03-30T08:33:03.060Z,12.60
2023-03-30T08:35:41.259Z,12.70
2023-03-30T08:38:21.403Z,12.80
2023-03-30T08:40:53.569Z,12.60
2023-03-30T08:43:56.996Z,12.80
2023-03-30T08:46:46.156Z,13.00
2023-03-30T08:49:19.976Z,13.20
2023-03-30T08:51:51.508Z,13.20
2023-03-30T08:54:24.224Z,13.30
2023-03-30T09:00:42.679Z,13.20
2023-03-30T09:03:27.241Z,13.70
2023-03-30T09:06:11.677Z,13.30
2023-03-30T09:08:40.735Z,13.30
2023-03-30T09:11:17.894Z,13.30
2023-03-30T09:13:51.557Z,13.40
2023-03-30T09:16:46.720Z,13.40
2023-03-30T09:19:27.630Z,13.50
2023-03-30T09:21:57.664Z,13.60
2023-03-30T09:24:27.393Z,13.60
2023-03-30T09:27:12.328Z,13.60
2023-03-30T09:29:52.080Z,13.60
2023-03-30T09:33:34.213Z,13.60
2023-03-30T09:36:35.097Z,13.60
2023-03-30T09:39:13.969Z,13.70
2023-03-30T09:42:21.272Z,13.90
2023-03-30T09:45:28.724Z,13.80
2023-03-30T09:50:31.637Z,13.70
2023-03-30T09:53:06.870Z,13.70
2023-03-30T09:55:42.518Z,13.80
2023-03-30T09:58:42.954Z,14.10
2023-03-30T10:01:16.993Z,13.90
2023-03-30T10:04:16.516Z,13.60
2023-03-30T10:07:18.530Z,13.90
2023-03-30T10:10:03.696Z,14.00
2023-03-30T10:15:44.417Z,14.10
2023-03-30T10:19:00.617Z,14.10
2023-03-30T10:21:37.212Z,14.10
2023-03-30T10:24:27.817Z,14.40
2023-03-30T10:27:16.673Z,14.00
2023-03-30T10:30:09.317Z,14.00
2023-03-30T10:33:10.415Z,14.10
2023-03-30T10:35:44.647Z,14.00
2023-03-30T10:38:18.115Z,14.30
2023-03-30T10:40:56.169Z,14.40
2023-03-30T10:43:38.544Z,14.60
2023-03-30T10:46:20.415Z,14.70
2023-03-30T10:49:39.126Z,15.00
2023-03-30T10:52:20.611Z,15.10
2023-03-30T10:55:16.163Z,15.00
2023-03-30T10:58:06.468Z,15.00
2023-03-30T11:00:45.911Z,15.00
2023-03-30T11:03:32.765Z,15.10
2023-03-30T11:06:11.363Z,15.20
2023-03-30T11:08:42.589Z,15.20
2023-03-30T11:11:23.106Z,15.00
2023-03-30T11:14:08.762Z,14.50
2023-03-30T11:17:02.979Z,14.00
2023-03-30T11:19:39.216Z,13.70
2023-03-30T11:22:40.342Z,13.70
2023-03-30T11:25:22.442Z,13.40
2023-03-30T11:28:01.042Z,13.60
2023-03-30T11:30:34.157Z,13.70
2023-03-30T11:33:22.693Z,14.00
2023-03-30T11:36:10.649Z,14.20
2023-03-30T11:39:31.577Z,14.70
2023-03-30T11:42:11.967Z,14.70
2023-03-30T11:44:42.617Z,14.90
2023-03-30T11:47:35.129Z,15.10
2023-03-30T11:50:23.365Z,15.30
2023-03-30T11:53:08.695Z,15.60
2023-03-30T11:55:49.540Z,16.00
2023-03-30T11:58:48.546Z,16.40
2023-03-30T12:01:35.575Z,16.70
2023-03-30T12:04:14.654Z,17.00
2023-03-30T12:06:57.426Z,17.40
2023-03-30T12:09:29.216Z,17.30
2023-03-30T12:12:12.025Z,16.00
2023-03-30T12:14:56.892Z,17.00
2023-03-30T12:17:51.574Z,16.80
2023-03-30T12:20:19.046Z,16.70
2023-03-30T12:22:59.361Z,16.60
2023-03-30T12:26:19.955Z,16.60
2023-03-30T12:29:36.136Z,16.30
2023-03-30T12:34:41.830Z,16.40
2023-03-30T12:37:23.565Z,16.40
2023-03-30T12:40:18.083Z,16.60
2023-03-30T12:43:01.899Z,17.00
2023-03-30T12:45:33.121Z,17.30
2023-03-30T12:48:20.322Z,17.30
2023-03-30T12:51:13.793Z,17.60
2023-03-30T12:53:59.518Z,17.90
2023-03-30T12:57:16.280Z,17.60
2023-03-30T13:00:19.619Z,17.50
2023-03-30T13:02:50.764Z,17.20
2023-03-30T13:05:33.208Z,16.90
2023-03-30T13:08:10.276Z,16.80
2023-03-30T13:10:42.204Z,17.40
2023-03-30T13:13:47.651Z,17.20
2023-03-30T13:16:35.422Z,17.00
2023-03-30T13:19:33.949Z,17.10
2023-03-30T13:22:13.883Z,17.00
2023-03-30T13:25:01.541Z,17.50
2023-03-30T13:27:37.537Z,17.90
2023-03-30T13:30:15.646Z,17.50
2023-03-30T13:33:11.668Z,17.50
2023-03-30T13:36:00.870Z,17.60
2023-03-30T13:38:48.737Z,17.30
2023-03-30T13:41:22.652Z,17.00
2023-03-30T13:44:27.190Z,16.90
2023-03-30T13:47:04.666Z,16.80
2023-03-30T13:49:35.383Z,16.30
2023-03-30T13:52:12.332Z,15.90
2023-03-30T13:54:41.070Z,15.60
2023-03-30T13:57:21.565Z,15.90
2023-03-30T13:59:54.841Z,16.40
2023-03-30T14:02:23.804Z,16.80
2023-03-30T14:05:00.475Z,17.10
2023-03-30T14:07:30.263Z,16.60
2023-03-30T14:10:27.904Z,17.40
2023-03-30T14:12:57.687Z,17.80
2023-03-30T14:15:34.032Z,17.80
2023-03-30T14:18:02.756Z,17.80
2023-03-30T14:20:43.315Z,18.30
2023-03-30T14:23:45.843Z,18.00
2023-03-30T14:26:26.322Z,17.90
2023-03-30T14:28:56.574Z,18.30
2023-03-30T14:31:26.977Z,18.60
2023-03-30T14:33:55.817Z,18.50
2023-03-30T14:36:24.798Z,18.30
2023-03-30T14:38:54.014Z,18.00
2023-03-30T14:41:29.248Z,17.70
2023-03-30T14:44:06.815Z,17.40
2023-03-30T14:47:00.353Z,17.20
2023-03-30T14:49:32.665Z,17.30
2023-03-30T14:52:02.991Z,17.80
2023-03-30T14:54:30.955Z,18.30
2023-03-30T14:57:01.828Z,18.20
2023-03-30T14:59:32.492Z,18.30
2023-03-30T15:02:01.055Z,17.90
2023-03-30T15:04:34.108Z,17.60
2023-03-30T15:07:03.533Z,17.50
2023-03-30T15:09:38.617Z,17.70
2023-03-30T15:12:06.349Z,18.10
2023-03-30T15:14:39.696Z,17.90
2023-03-30T15:17:22.001Z,18.10
2023-03-30T15:19:52.227Z,18.20
2023-03-30T15:22:26.121Z,18.10
2023-03-30T15:24:55.961Z,17.70
2023-03-30T15:27:24.218Z,17.30
2023-03-30T15:29:52.091Z,16.90
2023-03-30T15:32:25.970Z,16.70
2023-03-30T15:35:09.293Z,16.60
2023-03-30T15:37:37.134Z,16.50
2023-03-30T15:40:28.978Z,16.30
2023-03-30T15:43:20.356Z,16.00
2023-03-30T15:45:57.417Z,16.50
2023-03-30T15:48:30.833Z,16.30
2023-03-30T15:51:08.078Z,16.10
2023-03-30T15:53:54.349Z,15.80
2023-03-30T15:56:39.481Z,15.70
2023-03-30T15:59:14.411Z,15.40
2023-03-30T16:01:50.690Z,15.40
2023-03-30T16:04:19.931Z,15.10
2023-03-30T16:06:47.806Z,15.60
2023-03-30T16:09:16.254Z,16.10
2023-03-30T16:11:48.616Z,15.90
2023-03-30T16:14:22.971Z,16.00
2023-03-30T16:16:50.972Z,15.90
2023-03-30T16:19:19.903Z,17.70
2023-03-30T16:21:47.479Z,15.80
2023-03-30T16:26:42.976Z,16.40
2023-03-30T16:29:21.934Z,16.50
2023-03-30T16:31:54.292Z,16.60
2023-03-30T16:34:22.134Z,16.50
2023-03-30T16:36:50.596Z,16.10
2023-03-30T16:39:28.796Z,15.90
2023-03-30T16:41:56.789Z,15.80
2023-03-30T16:44:24.888Z,15.60
2023-03-30T16:46:53.037Z,15.50
2023-03-30T16:49:23.293Z,15.50
2023-03-30T16:51:53.484Z,15.40
2023-03-30T16:54:31.906Z,15.50
2023-03-30T16:57:06.186Z,15.10
2023-03-30T16:59:35.448Z,15.00
2023-03-30T17:02:03.538Z,14.90
2023-03-30T17:04:34.046Z,14.50
2023-03-30T17:07:01.805Z,14.70
2023-03-30T17:09:30.058Z,14.60
2023-03-30T17:11:57.714Z,14.50
2023-03-30T17:14:30.243Z,14.20
2023-03-30T17:16:57.960Z,14.50
2023-03-30T17:19:26.160Z,14.70
2023-03-30T17:21:54.365Z,14.90
2023-03-30T17:24:22.911Z,14.80
2023-03-30T17:26:50.511Z,14.70
2023-03-30T17:29:18.155Z,14.60
2023-03-30T17:34:14.618Z,14.40
2023-03-30T17:36:42.992Z,14.30
2023-03-30T17:39:18.982Z,14.30
2023-03-30T17:41:46.756Z,14.20
2023-03-30T17:44:17.295Z,14.20
2023-03-30T17:46:44.911Z,14.20
2023-03-30T17:49:18.860Z,14.10
2023-03-30T17:51:47.322Z,14.00
2023-03-30T17:54:16.185Z,14.00
2023-03-30T17:56:49.831Z,13.90
2023-03-30T17:59:18.463Z,13.90
2023-03-30T18:01:47.091Z,13.90
2023-03-30T18:07:17.303Z,13.90
2023-03-30T18:09:50.648Z,12.30
2023-03-30T18:12:31.385Z,13.70
2023-03-30T18:15:02.946Z,13.60
2023-03-30T18:17:34.986Z,13.60
2023-03-30T18:23:37.621Z,13.40
2023-03-30T18:26:09.449Z,13.40
2023-03-30T18:28:44.076Z,12.90
2023-03-30T18:31:25.917Z,13.20
2023-03-30T18:34:16.969Z,13.20
2023-03-30T18:37:05.457Z,13.20
2023-03-30T18:39:33.901Z,13.20
2023-03-30T18:42:10.772Z,12.90
2023-03-30T18:45:04.780Z,13.00
2023-03-30T18:47:32.338Z,13.00
2023-03-30T18:50:00.871Z,13.10
2023-03-30T18:52:33.877Z,13.00
2023-03-30T18:58:18.501Z,12.90
2023-03-30T19:01:04.071Z,12.90
2023-03-30T19:03:36.176Z,12.90
2023-03-30T19:06:04.152Z,12.90
2023-03-30T19:08:37.314Z,13.30
2023-03-30T19:11:28.378Z,13.00
2023-03-30T19:14:27.524Z,12.90
2023-03-30T19:16:59.279Z,12.60
2023-03-30T19:20:27.485Z,12.80
2023-03-30T19:22:34.411Z,12.90
2023-03-30T19:25:02.230Z,13.30
2023-03-30T19:27:30.183Z,13.00
2023-03-30T19:30:07.148Z,13.20
2023-03-30T19:32:36.186Z,13.10
2023-03-30T19:36:52.164Z,12.90
2023-03-30T19:39:27.502Z,12.90
2023-03-30T19:41:54.997Z,13.00
2023-03-30T19:44:26.866Z,12.70
2023-03-30T19:46:57.430Z,12.90
2023-03-30T19:49:35.035Z,12.90
2023-03-30T19:52:14.759Z,12.90
2023-03-30T19:54:55.506Z,12.80
2023-03-30T19:57:26.135Z,12.90
2023-03-30T19:59:57.082Z,12.90
2023-03-30T20:02:44.324Z,12.90
2023-03-30T20:05:16.068Z,12.80
2023-03-30T20:07:45.432Z,12.70
2023-03-30T20:10:18.932Z,12.60
2023-03-30T20:12:55.798Z,12.20
2023-03-30T20:15:27.625Z,12.40
2023-03-30T20:17:58.051Z,12.70
2023-03-30T20:20:26.752Z,12.40
2023-03-30T20:22:56.529Z,12.30
2023-03-30T20:25:27.594Z,12.10
2023-03-30T20:27:57.488Z,12.30
2023-03-30T20:30:28.437Z,12.20
2023-03-30T20:33:07.376Z,12.20
2023-03-30T20:35:39.952Z,12.20
2023-03-30T20:38:17.303Z,12.20
2023-03-30T20:40:59.439Z,12.30
2023-03-30T20:43:26.968Z,12.20
2023-03-30T20:46:03.542Z,12.30
2023-03-30T20:48:39.617Z,12.00
2023-03-30T20:51:14.005Z,12.60
2023-03-30T20:53:44.933Z,12.30
2023-03-30T20:56:12.444Z,12.30
2023-03-30T20:58:49.043Z,12.30
2023-03-30T21:01:25.822Z,12.20
2023-03-30T21:04:07.888Z,12.20
2023-03-30T21:06:36.108Z,12.20
2023-03-30T21:09:19.010Z,12.30
2023-03-30T21:11:49.524Z,12.00
2023-03-30T21:14:17.298Z,12.40
2023-03-30T21:16:45.683Z,12.10
2023-03-30T21:19:13.204Z,12.20
2023-03-30T21:21:41.017Z,12.00
2023-03-30T21:24:11.068Z,12.00
2023-03-30T21:26:38.899Z,12.00
2023-03-30T21:29:11.580Z,11.90
2023-03-30T21:31:39.290Z,11.90
2023-03-30T21:34:09.100Z,12.70
2023-03-30T21:36:36.796Z,11.90
2023-03-30T21:39:04.528Z,11.90
2023-03-30T21:41:32.099Z,11.80
2023-03-30T21:43:59.521Z,11.80
2023-03-30T21:46:27.085Z,11.70
2023-03-30T21:48:54.813Z,11.70
2023-03-30T21:51:26.450Z,11.50
2023-03-30T21:53:55.244Z,11.90
2023-03-30T21:56:25.995Z,11.60
2023-03-30T21:58:56.060Z,11.30
2023-03-30T22:01:24.395Z,11.30
2023-03-30T22:03:53.106Z,11.40
2023-03-30T22:06:21.478Z,11.30
2023-03-30T22:11:23.373Z,11.20
2023-03-30T22:13:52.259Z,11.10
2023-03-30T22:16:22.842Z,11.10
2023-03-30T22:18:51.522Z,11.00
2023-03-30T22:21:25.171Z,11.00
2023-03-30T22:23:54.692Z,11.30
2023-03-30T22:26:22.733Z,11.00
2023-03-30T22:28:50.337Z,10.90
2023-03-30T22:31:17.696Z,11.00
2023-03-30T22:33:46.004Z,11.00
2023-03-30T22:36:21.861Z,11.00
2023-03-30T22:38:50.901Z,11.30
2023-03-30T22:41:23.824Z,11.10
2023-03-30T22:43:53.055Z,10.70
2023-03-30T22:46:21.380Z,11.20
2023-03-30T22:48:55.892Z,11.30
2023-03-30T22:51:26.707Z,11.10
2023-03-30T22:53:59.418Z,10.90
2023-03-30T22:56:31.445Z,11.20
2023-03-30T22:59:00.984Z,11.00
2023-03-30T23:04:00.697Z,11.00
2023-03-30T23:06:28.413Z,11.00
2023-03-30T23:08:56.213Z,11.30
2023-03-30T23:11:23.802Z,11.20
2023-03-30T23:16:20.005Z,11.00
2023-03-30T23:18:48.987Z,11.20
2023-03-30T23:21:22.418Z,11.10
2023-03-30T23:26:19.658Z,11.10
2023-03-30T23:28:47.138Z,11.10
2023-03-30T23:31:17.440Z,11.00
2023-03-30T23:33:45.458Z,11.10
2023-03-30T23:36:13.996Z,11.20
2023-03-30T23:38:42.076Z,11.20
2023-03-30T23:41:12.587Z,11.40
2023-03-30T23:43:40.310Z,11.70
2023-03-30T23:46:08.431Z,11.40
2023-03-30T23:48:36.408Z,11.40
2023-03-30T23:51:04.085Z,11.40
2023-03-30T23:53:31.660Z,11.40
2023-03-30T23:55:59.837Z,11.60
2023-03-30T23:58:27.562Z,11.50
